createdAt,value
2023-04-14T00:00:18.858Z,8.23
2023-04-14T00:02:49.189Z,7.88
2023-04-14T00:05:19.851Z,7.80
2023-04-14T00:07:50.078Z,8.38
2023-04-14T00:10:20.184Z,9.00
2023-04-14T00:12:50.748Z,8.38
2023-04-14T00:15:24.083Z,8.70
2023-04-14T00:17:53.209Z,8.40
2023-04-14T00:20:20.902Z,8.20
2023-04-14T00:22:49.131Z,8.80
2023-04-14T00:25:20.294Z,8.82
2023-04-14T00:27:48.965Z,8.65
2023-04-14T00:30:17.414Z,7.72
2023-04-14T00:32:48.774Z,7.40
2023-04-14T00:35:27.736Z,7.38
2023-04-14T00:37:58.732Z,7.80
2023-04-14T00:40:32.734Z,8.35
2023-04-14T00:43:05.872Z,8.23
2023-04-14T00:45:49.831Z,8.40
2023-04-14T00:48:20.606Z,9.30
2023-04-14T00:50:51.112Z,9.35
2023-04-14T00:53:21.813Z,8.18
2023-04-14T00:55:52.013Z,9.52
2023-04-14T00:58:24.940Z,9.32
2023-04-14T01:00:59.093Z,9.25
2023-04-14T01:03:29.381Z,9.13
2023-04-14T01:06:05.518Z,10.80
2023-04-14T01:08:34.211Z,9.70
2023-04-14T01:11:22.489Z,10.65
2023-04-14T01:14:45.124Z,10.75
2023-04-14T01:17:38.139Z,9.43
2023-04-14T01:20:44.883Z,9.77
2023-04-14T01:23:41.071Z,8.90
2023-04-14T01:26:45.948Z,9.52
2023-04-14T01:29:39.402Z,9.77
2023-04-14T01:32:18.620Z,12.45
2023-04-14T01:37:48.697Z,10.30
2023-04-14T01:40:34.186Z,9.55
2023-04-14T01:43:11.637Z,10.20
2023-04-14T01:45:52.713Z,10.65
2023-04-14T01:48:27.025Z,9.75
2023-04-14T01:51:02.546Z,10.02
2023-04-14T01:53:39.129Z,10.43
2023-04-14T01:56:15.348Z,9.57
2023-04-14T01:58:49.504Z,10.85
2023-04-14T02:01:22.955Z,10.13
2023-04-14T02:03:53.975Z,10.00
2023-04-14T02:06:28.679Z,10.02
2023-04-14T02:09:04.973Z,10.98
2023-04-14T02:11:36.805Z,11.45
2023-04-14T02:14:11.612Z,11.35
2023-04-14T02:16:44.836Z,12.18
2023-04-14T02:19:21.843Z,10.98
2023-04-14T02:21:56.935Z,11.02
2023-04-14T02:24:27.509Z,10.65
2023-04-14T02:27:16.426Z,10.50
2023-04-14T02:30:00.396Z,11.85
2023-04-14T02:32:33.744Z,10.90
2023-04-14T02:35:16.944Z,11.32
2023-04-14T02:37:59.243Z,12.85
2023-04-14T02:40:42.533Z,11.57
2023-04-14T02:43:28.710Z,12.38
2023-04-14T02:46:06.118Z,11.82
2023-04-14T02:48:43.107Z,11.82
2023-04-14T02:51:18.214Z,11.85
2023-04-14T02:53:50.624Z,13.35
2023-04-14T02:56:22.435Z,11.98
2023-04-14T02:58:54.181Z,13.02
2023-04-14T03:01:27.555Z,12.35
2023-04-14T03:03:59.545Z,11.75
2023-04-14T03:06:32.056Z,12.52
2023-04-14T03:09:05.244Z,13.70
2023-04-14T03:11:38.365Z,11.85
2023-04-14T03:14:10.176Z,11.27
2023-04-14T03:16:42.972Z,11.05
2023-04-14T03:19:15.707Z,11.50
2023-04-14T03:21:47.490Z,10.02
2023-04-14T03:24:31.132Z,8.95
2023-04-14T03:27:11.030Z,10.82
2023-04-14T03:29:51.387Z,10.48
2023-04-14T03:32:29.517Z,10.55
2023-04-14T03:35:03.181Z,10.40
2023-04-14T03:37:41.486Z,9.73
2023-04-14T03:40:16.538Z,9.82
2023-04-14T03:42:49.967Z,9.32
2023-04-14T03:45:18.388Z,8.70
2023-04-14T03:47:46.960Z,9.10
2023-04-14T03:50:23.272Z,8.25
2023-04-14T03:52:55.289Z,9.38
2023-04-14T03:55:32.090Z,8.48
2023-04-14T03:58:05.583Z,7.63
2023-04-14T04:00:39.701Z,9.00
2023-04-14T04:03:12.480Z,8.63
2023-04-14T04:05:45.096Z,8.55
2023-04-14T04:08:17.018Z,8.20
2023-04-14T04:10:50.028Z,7.80
2023-04-14T04:13:24.025Z,7.85
2023-04-14T04:15:59.594Z,7.93
2023-04-14T04:18:35.713Z,8.43
2023-04-14T04:21:12.349Z,9.80
2023-04-14T04:23:51.526Z,8.98
2023-04-14T04:26:25.400Z,9.23
2023-04-14T04:29:06.618Z,9.75
2023-04-14T04:31:39.957Z,9.10
2023-04-14T04:34:12.246Z,9.07
2023-04-14T04:36:44.693Z,9.50
2023-04-14T04:39:14.957Z,9.27
2023-04-14T04:41:46.049Z,9.75
2023-04-14T04:44:18.938Z,9.70
2023-04-14T04:46:58.835Z,10.30
2023-04-14T04:49:29.633Z,9.68
2023-04-14T04:51:57.540Z,9.13
2023-04-14T04:54:27.291Z,10.02
2023-04-14T04:57:01.620Z,10.63
2023-04-14T04:59:33.181Z,10.50
2023-04-14T05:02:03.318Z,10.48
2023-04-14T05:04:33.574Z,10.20
2023-04-14T05:07:04.212Z,10.60
2023-04-14T05:09:33.802Z,11.38
2023-04-14T05:12:04.171Z,10.40
2023-04-14T05:14:34.445Z,9.80
2023-04-14T05:17:07.010Z,9.60
2023-04-14T05:19:37.204Z,11.13
2023-04-14T05:22:06.682Z,10.63
2023-04-14T05:24:36.396Z,9.93
2023-04-14T05:27:14.240Z,10.30
2023-04-14T05:32:14.854Z,9.32
2023-04-14T05:34:45.348Z,9.32
2023-04-14T05:37:14.994Z,8.98
2023-04-14T05:39:45.181Z,8.57
2023-04-14T05:42:18.842Z,9.02
2023-04-14T05:44:49.136Z,9.75
2023-04-14T05:47:19.153Z,9.77
2023-04-14T05:49:48.392Z,9.00
2023-04-14T05:52:18.267Z,8.90
2023-04-14T05:54:48.029Z,9.38
2023-04-14T05:57:17.759Z,9.13
2023-04-14T05:59:47.640Z,9.75
2023-04-14T06:02:17.595Z,9.20
2023-04-14T06:04:47.891Z,9.32
2023-04-14T06:07:18.240Z,9.85
2023-04-14T06:09:47.987Z,8.60
2023-04-14T06:12:17.808Z,9.85
2023-04-14T06:14:47.949Z,9.38
2023-04-14T06:17:17.778Z,8.32
2023-04-14T06:19:49.255Z,9.57
2023-04-14T06:22:20.035Z,9.45
2023-04-14T06:24:50.136Z,10.25
2023-04-14T06:27:19.876Z,10.20
2023-04-14T06:29:48.245Z,9.93
2023-04-14T06:32:16.748Z,9.77
2023-04-14T06:34:45.869Z,9.38
2023-04-14T06:37:13.812Z,9.20
2023-04-14T06:39:42.113Z,9.45
2023-04-14T06:42:14.983Z,8.55
2023-04-14T06:44:45.099Z,7.72
2023-04-14T06:47:21.112Z,8.10
2023-04-14T06:49:50.421Z,7.60
2023-04-14T06:52:20.583Z,8.85
2023-04-14T06:54:50.639Z,8.60
2023-04-14T06:57:21.037Z,9.15
2023-04-14T06:59:50.938Z,7.90
2023-04-14T07:02:20.537Z,7.60
2023-04-14T07:04:50.296Z,7.40
2023-04-14T07:07:20.125Z,8.70
2023-04-14T07:09:50.064Z,8.35
2023-04-14T07:12:19.958Z,8.60
2023-04-14T07:14:52.724Z,9.90
2023-04-14T07:17:22.809Z,8.70
2023-04-14T07:19:52.998Z,8.45
2023-04-14T07:22:22.759Z,8.40
2023-04-14T07:24:53.899Z,8.98
2023-04-14T07:27:24.562Z,9.18
2023-04-14T07:29:54.334Z,9.25
2023-04-14T07:32:24.602Z,8.07
2023-04-14T07:34:55.268Z,7.72
2023-04-14T07:37:25.109Z,8.18
2023-04-14T07:39:53.255Z,6.88
2023-04-14T07:42:21.466Z,8.27
2023-04-14T07:44:49.962Z,7.88
2023-04-14T07:47:18.234Z,7.47
2023-04-14T07:49:47.097Z,7.25
2023-04-14T07:52:15.128Z,6.50
2023-04-14T07:54:43.427Z,6.97
2023-04-14T07:57:11.962Z,6.50
2023-04-14T07:59:43.098Z,7.15
2023-04-14T08:02:11.956Z,7.43
2023-04-14T08:04:40.298Z,6.47
2023-04-14T08:07:08.823Z,6.80
2023-04-14T08:09:37.123Z,6.82
2023-04-14T08:12:08.640Z,7.60
2023-04-14T08:14:38.909Z,7.50
2023-04-14T08:17:09.101Z,6.10
2023-04-14T08:19:38.869Z,6.00
2023-04-14T08:22:07.910Z,4.97
2023-04-14T08:24:37.657Z,5.97
2023-04-14T08:27:07.122Z,5.35
2023-04-14T08:29:35.690Z,4.95
2023-04-14T08:32:04.979Z,6.82
2023-04-14T08:34:32.282Z,5.65
2023-04-14T08:37:00.832Z,6.50
2023-04-14T08:39:29.317Z,4.72
2023-04-14T08:41:58.556Z,5.93
2023-04-14T08:44:31.086Z,5.13
2023-04-14T08:47:02.416Z,4.72
2023-04-14T08:49:57.155Z,4.85
2023-04-14T08:52:32.290Z,5.30
2023-04-14T08:55:06.051Z,5.72
2023-04-14T08:57:37.694Z,5.13
2023-04-14T09:00:10.818Z,4.63
2023-04-14T09:02:42.599Z,5.20
2023-04-14T09:05:14.516Z,5.00
2023-04-14T09:07:45.343Z,4.82
2023-04-14T09:10:17.173Z,5.07
2023-04-14T09:12:49.022Z,5.85
2023-04-14T09:15:20.816Z,5.55
2023-04-14T09:17:51.394Z,6.57
2023-04-14T09:20:38.501Z,6.15
2023-04-14T09:23:11.044Z,5.47
2023-04-14T09:25:42.627Z,6.13
2023-04-14T09:28:13.236Z,7.13
2023-04-14T09:30:43.935Z,7.93
2023-04-14T09:33:24.311Z,7.38
2023-04-14T09:35:55.489Z,7.47
2023-04-14T09:38:40.635Z,7.32
2023-04-14T09:41:26.230Z,7.43
2023-04-14T09:43:55.819Z,7.10
2023-04-14T09:46:26.137Z,7.95
2023-04-14T09:48:57.878Z,8.27
2023-04-14T09:51:33.500Z,7.95
2023-04-14T09:54:06.870Z,7.70
2023-04-14T09:56:37.430Z,8.15
2023-04-14T09:59:07.264Z,7.93
2023-04-14T10:01:37.543Z,8.45
2023-04-14T10:04:26.758Z,8.55
2023-04-14T10:09:40.993Z,8.00
2023-04-14T10:12:19.479Z,8.20
2023-04-14T10:14:47.153Z,8.60
2023-04-14T10:17:15.562Z,8.52
2023-04-14T10:19:44.030Z,8.40
2023-04-14T10:22:13.104Z,9.05
2023-04-14T10:24:41.874Z,7.72
2023-04-14T10:27:09.282Z,8.35
2023-04-14T10:29:42.337Z,8.38
2023-04-14T10:32:17.722Z,8.27
2023-04-14T10:35:12.403Z,8.23
2023-04-14T10:37:54.312Z,9.23
2023-04-14T10:40:24.818Z,8.45
2023-04-14T10:42:56.605Z,8.85
2023-04-14T10:45:24.515Z,8.65
2023-04-14T10:47:53.268Z,9.00
2023-04-14T10:50:25.275Z,8.95
2023-04-14T10:52:56.962Z,10.35
2023-04-14T10:55:51.668Z,8.90
2023-04-14T10:58:29.881Z,8.18
2023-04-14T11:01:00.090Z,8.20
2023-04-14T11:03:48.318Z,8.55
2023-04-14T11:06:57.300Z,7.80
2023-04-14T11:09:39.626Z,7.05
2023-04-14T11:12:31.604Z,7.95
2023-04-14T11:15:06.388Z,8.15
2023-04-14T11:17:41.896Z,8.27
2023-04-14T11:20:21.209Z,8.07
2023-04-14T11:22:54.253Z,7.88
2023-04-14T11:25:24.595Z,7.78
2023-04-14T11:27:55.245Z,8.57
2023-04-14T11:30:22.887Z,7.97
2023-04-14T11:32:57.968Z,8.90
2023-04-14T11:35:31.452Z,8.52
2023-04-14T11:38:01.988Z,7.65
2023-04-14T11:40:30.750Z,8.55
2023-04-14T11:43:01.960Z,9.15
2023-04-14T11:45:31.987Z,8.23
2023-04-14T11:48:08.625Z,9.02
2023-04-14T11:50:40.064Z,8.63
2023-04-14T11:53:16.538Z,8.98
2023-04-14T11:55:52.199Z,8.23
2023-04-14T11:58:24.997Z,8.80
2023-04-14T12:00:57.824Z,8.35
2023-04-14T12:03:39.560Z,9.57
2023-04-14T12:06:10.428Z,9.75
2023-04-14T12:08:40.615Z,10.10
2023-04-14T12:11:15.801Z,8.77
2023-04-14T12:13:49.366Z,8.18
2023-04-14T12:16:20.094Z,8.60
2023-04-14T12:18:50.264Z,7.93
2023-04-14T12:21:22.968Z,8.23
2023-04-14T12:23:54.951Z,8.00
2023-04-14T12:26:26.347Z,8.45
2023-04-14T12:28:58.381Z,7.90
2023-04-14T12:31:30.200Z,7.72
2023-04-14T12:34:04.226Z,7.63
2023-04-14T12:36:47.823Z,7.55
2023-04-14T12:39:17.803Z,7.53
2023-04-14T12:41:47.035Z,7.07
2023-04-14T12:44:20.943Z,7.20
2023-04-14T12:46:54.041Z,7.68
2023-04-14T12:49:38.979Z,7.57
2023-04-14T12:52:09.190Z,6.68
2023-04-14T12:54:54.125Z,6.90
2023-04-14T12:57:24.316Z,6.78
2023-04-14T12:59:54.436Z,7.10
2023-04-14T13:02:24.881Z,7.47
2023-04-14T13:04:55.576Z,9.18
2023-04-14T13:07:25.773Z,8.30
2023-04-14T13:09:58.236Z,7.53
2023-04-14T13:12:28.452Z,7.05
2023-04-14T13:14:58.970Z,7.72
2023-04-14T13:17:29.578Z,8.38
2023-04-14T13:19:59.880Z,8.60
2023-04-14T13:22:30.059Z,8.95
2023-04-14T13:25:00.784Z,7.75
2023-04-14T13:27:31.163Z,8.27
2023-04-14T13:30:02.333Z,8.20
2023-04-14T13:32:29.928Z,8.35
2023-04-14T13:35:01.022Z,7.63
2023-04-14T13:37:29.519Z,7.40
2023-04-14T13:39:58.468Z,7.88
2023-04-14T13:42:26.733Z,7.85
2023-04-14T13:44:54.762Z,7.38
2023-04-14T13:47:23.792Z,8.35
2023-04-14T13:49:51.672Z,8.27
2023-04-14T13:52:22.990Z,7.93
2023-04-14T13:54:53.193Z,8.23
2023-04-14T13:57:23.328Z,7.20
2023-04-14T13:59:53.534Z,7.93
2023-04-14T14:02:24.183Z,7.85
2023-04-14T14:04:55.069Z,7.25
2023-04-14T14:07:25.411Z,7.70
2023-04-14T14:09:55.715Z,7.80
2023-04-14T14:12:25.884Z,7.70
2023-04-14T14:14:56.077Z,7.53
2023-04-14T14:17:26.256Z,7.47
2023-04-14T14:19:56.467Z,7.20
2023-04-14T14:22:27.014Z,7.88
2023-04-14T14:25:10.816Z,7.63
2023-04-14T14:27:47.790Z,7.78
2023-04-14T14:30:16.105Z,8.38
2023-04-14T14:32:44.463Z,8.13
2023-04-14T14:35:12.845Z,8.18
2023-04-14T14:37:42.926Z,7.65
2023-04-14T14:40:13.274Z,8.15
2023-04-14T14:42:41.285Z,7.78
2023-04-14T14:45:10.595Z,8.55
2023-04-14T14:47:39.112Z,8.23
2023-04-14T14:50:10.339Z,8.93
2023-04-14T14:52:40.577Z,6.78
2023-04-14T14:55:10.870Z,7.55
2023-04-14T14:57:39.082Z,8.18
2023-04-14T15:00:08.982Z,6.93
2023-04-14T15:02:39.224Z,5.90
2023-04-14T15:05:08.280Z,6.65
2023-04-14T15:07:35.762Z,7.30
2023-04-14T15:10:05.695Z,6.82
2023-04-14T15:12:35.978Z,7.00
2023-04-14T15:15:07.847Z,6.70
2023-04-14T15:17:37.993Z,7.00
2023-04-14T15:20:09.114Z,7.70
2023-04-14T15:22:39.332Z,7.85
2023-04-14T15:25:10.138Z,8.50
2023-04-14T15:27:40.460Z,9.10
2023-04-14T15:30:11.460Z,7.15
2023-04-14T15:32:41.864Z,7.95
2023-04-14T15:35:12.012Z,8.95
2023-04-14T15:37:42.375Z,10.27
2023-04-14T15:40:12.885Z,10.93
2023-04-14T15:42:43.003Z,9.70
2023-04-14T15:45:14.507Z,10.25
2023-04-14T15:47:46.410Z,9.38
2023-04-14T15:50:18.918Z,7.97
2023-04-14T15:52:49.867Z,7.03
2023-04-14T15:55:20.417Z,7.05
2023-04-14T15:57:50.979Z,6.50
2023-04-14T16:00:22.786Z,6.38
2023-04-14T16:02:53.142Z,8.98
2023-04-14T16:05:23.359Z,9.38
2023-04-14T16:07:53.258Z,6.70
2023-04-14T16:10:23.511Z,6.15
2023-04-14T16:12:53.763Z,6.57
2023-04-14T16:15:23.611Z,6.30
2023-04-14T16:17:53.440Z,6.53
2023-04-14T16:20:23.861Z,6.38
2023-04-14T16:22:54.321Z,6.68
2023-04-14T16:25:24.421Z,6.07
2023-04-14T16:27:54.624Z,6.63
2023-04-14T16:30:24.232Z,7.38
2023-04-14T16:32:54.074Z,7.15
2023-04-14T16:35:24.175Z,7.22
2023-04-14T16:37:54.306Z,5.93
2023-04-14T16:40:22.764Z,6.75
2023-04-14T16:42:51.299Z,6.95
2023-04-14T16:45:20.366Z,6.88
2023-04-14T16:47:48.026Z,7.38
2023-04-14T16:50:16.582Z,6.82
2023-04-14T16:52:44.790Z,7.47
2023-04-14T16:55:15.835Z,7.70
2023-04-14T16:57:44.681Z,6.80
2023-04-14T17:00:14.281Z,6.60
2023-04-14T17:02:41.691Z,7.00
2023-04-14T17:05:11.302Z,6.88
2023-04-14T17:07:42.675Z,6.70
2023-04-14T17:10:12.716Z,6.47
2023-04-14T17:12:43.227Z,6.15
2023-04-14T17:15:13.376Z,6.82
2023-04-14T17:17:43.450Z,6.00
2023-04-14T17:20:15.561Z,6.68
2023-04-14T17:22:45.186Z,6.97
2023-04-14T17:25:21.995Z,7.13
2023-04-14T17:27:50.066Z,7.72
2023-04-14T17:30:20.711Z,6.43
2023-04-14T17:32:50.778Z,6.95
2023-04-14T17:35:21.545Z,6.72
2023-04-14T17:37:51.688Z,6.82
2023-04-14T17:40:21.649Z,7.93
2023-04-14T17:42:52.179Z,7.10
2023-04-14T17:45:25.870Z,8.38
2023-04-14T17:47:54.186Z,8.18
2023-04-14T17:50:25.672Z,7.85
2023-04-14T17:52:55.744Z,7.68
2023-04-14T17:55:25.145Z,7.72
2023-04-14T17:57:56.297Z,8.65
2023-04-14T18:00:29.405Z,8.20
2023-04-14T18:02:56.969Z,8.38
2023-04-14T18:05:25.505Z,8.88
2023-04-14T18:07:54.580Z,8.55
2023-04-14T18:10:22.483Z,7.72
2023-04-14T18:12:50.983Z,8.50
2023-04-14T18:15:19.974Z,8.07
2023-04-14T18:17:48.064Z,9.93
2023-04-14T18:20:18.827Z,10.65
2023-04-14T18:22:48.369Z,11.32
2023-04-14T18:25:16.986Z,10.73
2023-04-14T18:30:19.534Z,10.75
2023-04-14T18:32:49.776Z,9.77
2023-04-14T18:35:20.099Z,9.80
2023-04-14T18:37:50.491Z,12.18
2023-04-14T18:40:21.196Z,13.10
2023-04-14T18:42:54.327Z,13.15
2023-04-14T18:45:24.497Z,13.13
2023-04-14T18:47:54.759Z,12.43
2023-04-14T18:50:25.512Z,13.18
2023-04-14T18:52:56.050Z,12.80
2023-04-14T18:55:26.211Z,11.95
2023-04-14T18:58:13.176Z,12.50
2023-04-14T19:00:46.589Z,12.50
2023-04-14T19:03:17.270Z,18.23
2023-04-14T19:05:52.209Z,14.45
2023-04-14T19:08:22.574Z,15.07
2023-04-14T19:10:52.824Z,14.65
2023-04-14T19:13:24.220Z,13.50
2023-04-14T19:16:13.536Z,12.18
2023-04-14T19:18:43.447Z,12.40
2023-04-14T19:21:12.462Z,12.60
2023-04-14T19:23:41.133Z,12.98
2023-04-14T19:26:10.489Z,13.35
2023-04-14T19:28:40.443Z,12.95
2023-04-14T19:31:09.802Z,14.23
2023-04-14T19:33:41.907Z,14.48
2023-04-14T19:36:18.621Z,13.88
2023-04-14T19:38:49.230Z,16.33
2023-04-14T19:41:19.684Z,14.35
2023-04-14T19:43:51.075Z,14.20
2023-04-14T19:46:21.870Z,14.75
2023-04-14T19:48:52.398Z,15.57
2023-04-14T19:51:22.564Z,14.80
2023-04-14T19:53:52.820Z,15.32
2023-04-14T19:56:20.530Z,15.35
2023-04-14T19:58:48.238Z,14.18
2023-04-14T20:01:18.476Z,14.50
2023-04-14T20:04:05.102Z,13.57
2023-04-14T20:06:37.204Z,13.48
2023-04-14T20:09:05.761Z,14.18
2023-04-14T20:11:34.020Z,14.23
2023-04-14T20:14:02.605Z,13.82
2023-04-14T20:16:31.306Z,14.55
2023-04-14T20:18:59.561Z,14.38
2023-04-14T20:21:28.325Z,14.50
2023-04-14T20:23:57.845Z,13.95
2023-04-14T20:26:28.753Z,13.57
2023-04-14T20:28:59.511Z,14.27
2023-04-14T20:31:30.956Z,13.90
2023-04-14T20:34:01.217Z,12.50
2023-04-14T20:36:35.683Z,12.15
2023-04-14T20:39:06.386Z,11.63
2023-04-14T20:41:36.677Z,12.13
2023-04-14T20:44:07.580Z,11.77
2023-04-14T20:46:37.931Z,25.58
2023-04-14T20:49:08.129Z,113.38
2023-04-14T20:51:39.647Z,21.05
2023-04-14T20:54:09.748Z,14.38
2023-04-14T20:56:40.250Z,13.10
2023-04-14T20:59:10.453Z,14.38
2023-04-14T21:01:42.772Z,12.73
2023-04-14T21:04:13.126Z,14.95
2023-04-14T21:06:43.812Z,12.30
2023-04-14T21:09:14.704Z,13.43
2023-04-14T21:11:44.827Z,13.13
2023-04-14T21:15:48.019Z,13.02
2023-04-14T21:17:05.183Z,13.35
2023-04-14T21:19:35.355Z,12.88
2023-04-14T21:22:08.246Z,11.77
2023-04-14T21:24:38.375Z,12.95
2023-04-14T21:27:08.501Z,12.70
2023-04-14T21:29:38.638Z,14.63
2023-04-14T21:32:08.733Z,12.48
2023-04-14T21:34:37.437Z,12.80
2023-04-14T21:37:05.763Z,12.38
2023-04-14T21:39:34.083Z,12.55
2023-04-14T21:42:03.898Z,13.45
2023-04-14T21:44:33.874Z,12.70
2023-04-14T21:47:02.272Z,13.38
2023-04-14T21:49:30.731Z,13.88
2023-04-14T21:51:59.173Z,13.77
2023-04-14T21:54:27.806Z,14.15
2023-04-14T21:56:57.055Z,14.18
2023-04-14T21:59:24.458Z,15.43
2023-04-14T22:01:53.032Z,15.93
2023-04-14T22:04:33.069Z,16.00
2023-04-14T22:07:06.621Z,16.27
2023-04-14T22:09:36.800Z,15.60
2023-04-14T22:12:11.591Z,18.15
2023-04-14T22:14:42.162Z,18.33
2023-04-14T22:17:12.348Z,17.73
2023-04-14T22:19:43.343Z,19.23
2023-04-14T22:22:13.535Z,17.23
2023-04-14T22:24:43.823Z,17.98
2023-04-14T22:27:13.959Z,19.23
2023-04-14T22:29:44.128Z,19.67
2023-04-14T22:32:14.310Z,20.98
2023-04-14T22:34:44.497Z,20.08
2023-04-14T22:37:14.817Z,22.13
2023-04-14T22:39:45.146Z,21.35
2023-04-14T22:42:19.554Z,22.02
2023-04-14T22:44:48.241Z,22.10
2023-04-14T22:47:18.153Z,22.30
2023-04-14T22:49:46.827Z,21.77
2023-04-14T22:52:15.069Z,23.15
2023-04-14T22:54:43.394Z,24.23
2023-04-14T22:57:11.861Z,23.38
2023-04-14T22:59:40.323Z,25.20
2023-04-14T23:02:08.701Z,23.02
2023-04-14T23:04:37.722Z,23.95
2023-04-14T23:07:05.822Z,25.73
2023-04-14T23:09:34.070Z,25.20
2023-04-14T23:12:03.039Z,23.55
2023-04-14T23:14:32.519Z,26.30
2023-04-14T23:17:02.789Z,23.90
2023-04-14T23:19:33.807Z,24.85
2023-04-14T23:22:04.579Z,26.05
2023-04-14T23:24:34.719Z,25.58
2023-04-14T23:27:04.989Z,25.52
2023-04-14T23:29:40.078Z,27.60
2023-04-14T23:32:10.528Z,25.35
2023-04-14T23:34:41.228Z,26.33
2023-04-14T23:37:12.728Z,25.95
2023-04-14T23:39:42.949Z,26.77
2023-04-14T23:42:20.193Z,23.20
2023-04-14T23:44:50.324Z,27.17
2023-04-14T23:47:20.645Z,26.63
2023-04-14T23:49:51.392Z,25.52
2023-04-14T23:52:21.983Z,25.23
2023-04-14T23:54:52.307Z,24.98
2023-04-14T23:57:22.639Z,26.33
2023-04-14T23:59:53.044Z,25.95
